Terminal Aerodrome Forecast
Issued by NWS

Home | Current Version | Previous Version | Text Only | Print | Product List | Glossary On
Versions: 1 2 3 4 5 6 7 8 9 10 11 12 13
000
FTUS46 KLOX 282345
TAFWJF
TAF
KWJF 282345Z 2900/2924 25016KT P6SM SKC
     FM290300 26008KT P6SM SKC
     FM291300 VRB05KT P6SM SKC
     FM291800 02008KT P6SM SKC
     FM292300 25012KT P6SM SKC=

USA.gov is the U.S. government's official web portal to all federal, state and local government web resources and services.